Terminal Aerodrome Forecast
Issued by NWS Omaha/Valley, NE

Home | Current Version | Previous Version | Text Only | Print | Product List | Glossary On
Versions: 1 2 3 4 5 6 7 8 9 10 11 12 13 14 15 16 17 18 19 20 21 22 23 24 25 26 27 28 29 30 31 32 33 34 35 36 37 38
000
FTUS43 KOAX 211120
TAFLNK
TAF
KLNK 211120Z 2112/2212 VRB04KT P6SM SKC
     FM211600 16008KT P6SM SKC
     FM211900 16011KT P6SM FEW250
     FM220400 14010KT P6SM BKN040
      TEMPO 2206/2210 BKN030=

USA.gov is the U.S. government's official web portal to all federal, state and local government web resources and services.